TimeEST,TemperatureF,Dew PointF,Humidity,Sea Level PressureIn,VisibilityMPH,Wind Direction,Wind SpeedMPH,Gust SpeedMPH,PrecipitationIn,Events,Conditions,WindDirDegrees,DateUTC
12:53 AM,26.1,12.0,55,29.79,10.0,WNW,5.8,-,N/A,,Clear,290,2013-02-21 05:53:00
1:53 AM,26.1,12.0,55,29.79,10.0,West,10.4,19.6,N/A,,Clear,270,2013-02-21 06:53:00
2:53 AM,26.1,12.0,55,29.78,10.0,Variable,6.9,-,N/A,,Clear,0,2013-02-21 07:53:00
3:53 AM,25.0,12.0,58,29.79,10.0,West,6.9,-,N/A,,Clear,280,2013-02-21 08:53:00
4:53 AM,24.8,10.4,54,29.75,10.0,West,4.6,-,N/A,,Clear,260,2013-02-21 09:53:00
5:53 AM,24.1,10.9,57,29.83,10.0,West,9.2,-,N/A,,Mostly Cloudy,280,2013-02-21 10:53:00
6:53 AM,23.0,7.0,50,29.84,10.0,WNW,13.8,-,N/A,,Partly Cloudy,290,2013-02-21 11:53:00
7:53 AM,23.0,6.1,48,29.86,10.0,WNW,12.7,25.3,N/A,,Scattered Clouds,300,2013-02-21 12:53:00
8:53 AM,23.0,6.1,48,29.85,10.0,WNW,17.3,24.2,N/A,,Partly Cloudy,290,2013-02-21 13:53:00
9:53 AM,25.0,5.0,43,29.85,10.0,WNW,16.1,24.2,N/A,,Partly Cloudy,300,2013-02-21 14:53:00
10:53 AM,26.1,7.0,44,29.87,10.0,NW,18.4,26.5,0.00,,Partly Cloudy,320,2013-02-21 15:53:00
11:53 AM,26.1,8.1,47,29.87,10.0,NW,20.7,28.8,N/A,,Partly Cloudy,310,2013-02-21 16:53:00
12:53 PM,27.0,9.0,47,29.88,10.0,WNW,18.4,24.2,N/A,,Scattered Clouds,300,2013-02-21 17:53:00
1:53 PM,30.0,10.9,45,29.88,10.0,NNW,21.9,28.8,N/A,,Mostly Cloudy,330,2013-02-21 18:53:00
2:53 PM,28.9,10.0,45,29.90,10.0,NW,20.7,34.5,N/A,,Mostly Cloudy,320,2013-02-21 19:53:00
3:53 PM,28.9,10.0,45,29.94,10.0,NW,18.4,27.6,N/A,,Mostly Cloudy,320,2013-02-21 20:53:00
4:53 PM,28.0,10.9,49,29.99,10.0,NNW,20.7,33.4,N/A,,Mostly Cloudy,330,2013-02-21 21:53:00
5:53 PM,25.0,10.0,53,30.03,10.0,NNW,16.1,29.9,N/A,,Partly Cloudy,330,2013-02-21 22:53:00
6:53 PM,24.1,10.9,57,30.08,10.0,NNW,13.8,21.9,N/A,,Clear,330,2013-02-21 23:53:00
7:53 PM,24.1,10.9,57,30.12,10.0,NNW,16.1,24.2,N/A,,Scattered Clouds,330,2013-02-22 00:53:00
8:53 PM,25.0,12.0,58,30.15,10.0,NNW,12.7,20.7,N/A,,Mostly Cloudy,330,2013-02-22 01:53:00
9:53 PM,24.1,12.9,62,30.17,10.0,North,12.7,-,N/A,,Partly Cloudy,350,2013-02-22 02:53:00
10:53 PM,24.1,12.9,62,30.20,10.0,NNW,10.4,-,N/A,,Clear,330,2013-02-22 03:53:00
11:53 PM,24.1,14.0,65,30.25,10.0,NNW,9.2,-,N/A,,Clear,330,2013-02-22 04:53:00